Brimley, Michigan
Current Conditions -  °F | °C
As of 2:00 PM on Monday 22 Dec 2014 (Local Time) from CYAM Reporting Station
Broken Clouds Broken Clouds  
Wind Chill: 27°   Ceiling: 25000
Heat Index: 36°   Visibility: 12mi
Dew Point: 28°   Wind: 13mph
Humidity: 75%   Direction: 120°ESE
Pressure: 29.99"   Gusts: 20mph
Location:  46.41°N, 84.57°W
Report Text: CYAM 221900Z 12011G17KT 12SM FEW046 SCT170 SCT180 BKN250 02/M02 A2999 RMK SC2AC1AC1CI3 SLP163
Loading
Personal Weather Stations






























Interactive Weather Map New forecast layout! Learn more

10-Day Weather Forecast

Advertisements
Track Severe Weather on mobile